Time;durP1;ratioP1;P1;durP2;ratioP2;P2;SDS_P1;SDS_P2;PMS_P1;PMS_P2;Temp;Humidity;BMP_temperature;BMP_pressure;BME280_temperature;BME280_humidity;BME280_pressure;Samples;Min_cycle;Max_cycle;Signal;HPM_P1;HPM_P2
2023/07/05 00:01:30;;;;;;;6.97;5.57;;;14.90;99.90;;;;;;5067961;28;20052;-81
2023/07/05 00:03:56;;;;;;;7.15;5.00;;;14.90;99.90;;;;;;5067876;28;20491;-81
2023/07/05 00:06:21;;;;;;;8.57;5.38;;;14.90;99.90;;;;;;5066589;28;20048;-82
2023/07/05 00:08:47;;;;;;;7.10;5.57;;;14.90;99.90;;;;;;5067924;28;20048;-82
2023/07/05 00:11:13;;;;;;;8.93;5.35;;;14.90;99.90;;;;;;5066883;28;20048;-82
2023/07/05 00:13:39;;;;;;;10.60;5.70;;;14.90;99.90;;;;;;5067546;28;20048;-82
2023/07/05 00:16:05;;;;;;;9.55;6.03;;;14.90;99.90;;;;;;5084115;28;20394;-81
2023/07/05 00:18:31;;;;;;;6.95;5.53;;;15.30;99.90;;;;;;5055462;28;20851;-81
2023/07/05 00:21:01;;;;;;;8.80;5.57;;;14.90;99.90;;;;;;5046884;28;20045;-82
2023/07/05 00:23:28;;;;;;;7.80;5.13;;;14.80;99.90;;;;;;5048587;28;20076;-81
2023/07/05 00:25:54;;;;;;;10.05;5.55;;;15.10;99.90;;;;;;5065537;28;20045;-81
2023/07/05 00:28:19;;;;;;;10.20;6.18;;;14.80;99.90;;;;;;5066795;28;20512;-82
2023/07/05 00:30:46;;;;;;;9.25;5.78;;;14.90;99.90;;;;;;5062834;28;20399;-81
2023/07/05 00:33:12;;;;;;;7.65;5.40;;;14.80;99.90;;;;;;5066769;28;20515;-81
2023/07/05 00:35:48;;;;;;;6.97;5.82;;;14.80;99.90;;;;;;5064709;28;20037;-82
2023/07/05 00:38:13;;;;;;;9.27;5.30;;;14.80;99.90;;;;;;5067002;28;20055;-81
2023/07/05 00:40:39;;;;;;;8.38;5.47;;;14.90;99.90;;;;;;5064287;28;20044;-81
2023/07/05 00:43:05;;;;;;;11.10;6.68;;;14.90;99.90;;;;;;5066564;28;20260;-82
2023/07/05 00:45:30;;;;;;;9.20;6.38;;;14.90;99.90;;;;;;5065188;28;20155;-83
2023/07/05 00:47:57;;;;;;;7.35;5.68;;;14.90;99.90;;;;;;5063653;28;20041;-82
2023/07/05 00:50:34;;;;;;;14.32;6.13;;;14.90;99.90;;;;;;5051338;28;20056;-82
2023/07/05 00:53:00;;;;;;;10.68;5.85;;;14.90;99.90;;;;;;5065938;28;20056;-82
2023/07/05 00:55:27;;;;;;;10.98;5.97;;;14.90;99.90;;;;;;5064966;28;21054;-82
2023/07/05 00:57:53;;;;;;;7.68;5.43;;;14.90;99.90;;;;;;5049248;28;20131;-82
2023/07/05 01:00:21;;;;;;;7.60;5.75;;;14.90;99.90;;;;;;5065506;28;20053;-82
2023/07/05 01:02:52;;;;;;;9.18;6.07;;;14.90;99.90;;;;;;5065030;28;20076;-81
2023/07/05 01:05:19;;;;;;;9.70;6.38;;;14.90;99.90;;;;;;5051508;28;20480;-82
2023/07/05 01:07:46;;;;;;;9.60;6.57;;;14.90;99.90;;;;;;5049200;28;20143;-82
2023/07/05 01:10:18;;;;;;;10.95;6.25;;;15.00;99.90;;;;;;5065751;28;20055;-82
2023/07/05 01:13:09;;;;;;;13.52;6.90;;;15.00;99.90;;;;;;5060630;28;20120;-82
2023/07/05 01:15:52;;;;;;;7.60;5.55;;;15.00;99.90;;;;;;5065730;28;20064;-82
2023/07/05 01:18:48;;;;;;;9.98;6.63;;;15.00;99.90;;;;;;5066359;28;20466;-82
2023/07/05 01:21:43;;;;;;;7.63;6.38;;;15.00;99.90;;;;;;5063622;28;20049;-83
2023/07/05 01:24:35;;;;;;;10.38;6.63;;;15.00;99.90;;;;;;5065017;28;20507;-83
2023/07/05 01:27:38;;;;;;;10.60;6.93;;;15.00;99.90;;;;;;5065519;28;20056;-82
2023/07/05 01:30:35;;;;;;;10.13;7.07;;;14.90;99.90;;;;;;5080966;28;20052;-82
2023/07/05 01:33:08;;;;;;;9.77;6.82;;;14.90;99.90;;;;;;5065313;28;20044;-82
2023/07/05 01:35:43;;;;;;;12.88;7.40;;;14.90;99.90;;;;;;5064974;28;20151;-81
2023/07/05 01:38:09;;;;;;;10.57;7.40;;;14.90;99.90;;;;;;5064499;28;20060;-82
2023/07/05 01:40:35;;;;;;;11.25;7.65;;;14.80;99.90;;;;;;5065095;28;20071;-82
2023/07/05 01:43:05;;;;;;;14.93;7.60;;;14.80;99.90;;;;;;5064263;28;20052;-83
2023/07/05 01:45:49;;;;;;;11.10;8.10;;;14.80;99.90;;;;;;5065506;28;20041;-83
2023/07/05 01:48:41;;;;;;;13.55;7.85;;;14.80;99.90;;;;;;5066343;28;20061;-83
2023/07/05 01:51:31;;;;;;;9.68;7.65;;;14.80;99.90;;;;;;5045442;28;20918;-82
2023/07/05 01:54:10;;;;;;;11.02;7.20;;;14.70;99.90;;;;;;5054945;28;20105;-82
2023/07/05 01:57:05;;;;;;;10.63;8.30;;;14.70;99.90;;;;;;5065099;28;20094;-81
2023/07/05 01:59:41;;;;;;;11.98;8.23;;;14.70;99.90;;;;;;5067168;28;20067;-82
2023/07/05 02:02:08;;;;;;;10.30;7.82;;;14.60;99.90;;;;;;5075308;28;20048;-82
2023/07/05 02:04:35;;;;;;;13.18;8.30;;;14.60;99.90;;;;;;5066013;28;20122;-82
2023/07/05 02:07:05;;;;;;;11.50;8.00;;;14.60;99.90;;;;;;5069908;28;20060;-82
2023/07/05 02:09:36;;;;;;;11.13;8.23;;;14.50;99.90;;;;;;5052650;28;20045;-81
2023/07/05 02:12:01;;;;;;;12.45;8.68;;;14.50;99.90;;;;;;5067285;28;20158;-81
2023/07/05 02:14:27;;;;;;;12.48;8.45;;;14.50;99.90;;;;;;5068475;28;20127;-81
2023/07/05 02:16:53;;;;;;;14.73;8.82;;;14.50;99.90;;;;;;5055122;28;20044;-82
2023/07/05 02:19:18;;;;;;;14.32;9.00;;;14.50;99.90;;;;;;5065906;28;20068;-82
2023/07/05 02:21:45;;;;;;;13.77;9.60;;;14.50;99.90;;;;;;5068256;28;20052;-83
2023/07/05 02:24:11;;;;;;;13.52;9.15;;;14.50;99.90;;;;;;5068750;28;20052;-82
2023/07/05 02:26:36;;;;;;;13.02;9.27;;;14.50;99.90;;;;;;5069092;28;20040;-83
2023/07/05 02:29:02;;;;;;;12.65;9.18;;;14.50;99.90;;;;;;5069128;28;20412;-84
2023/07/05 02:31:29;;;;;;;13.02;9.43;;;14.50;99.90;;;;;;5067934;28;20174;-83
2023/07/05 02:33:54;;;;;;;11.27;9.40;;;14.40;99.90;;;;;;5058954;28;20052;-82
2023/07/05 02:36:20;;;;;;;13.75;9.85;;;14.50;99.90;;;;;;5068663;28;20427;-82
2023/07/05 02:38:46;;;;;;;15.32;9.50;;;14.40;99.90;;;;;;5069363;28;20625;-82
2023/07/05 02:41:11;;;;;;;16.77;10.48;;;14.40;99.90;;;;;;5068073;28;20044;-82
2023/07/05 02:43:37;;;;;;;14.05;10.00;;;14.40;99.90;;;;;;5085716;28;20052;-82
2023/07/05 02:46:05;;;;;;;15.00;10.73;;;14.40;99.90;;;;;;5068996;28;20051;-83
2023/07/05 02:48:31;;;;;;;13.70;10.25;;;14.40;99.90;;;;;;5070342;28;20133;-83
2023/07/05 02:50:57;;;;;;;13.55;10.02;;;14.40;99.90;;;;;;5067115;28;20182;-81
2023/07/05 02:53:22;;;;;;;12.55;9.48;;;14.40;99.90;;;;;;5068769;28;20520;-82
2023/07/05 02:55:49;;;;;;;14.70;10.65;;;14.40;99.90;;;;;;5054062;28;20033;-81
2023/07/05 02:58:14;;;;;;;16.27;9.90;;;14.50;99.90;;;;;;5069503;28;20049;-82
2023/07/05 03:00:40;;;;;;;13.98;10.50;;;14.40;99.90;;;;;;5068795;28;20408;-82
2023/07/05 03:03:05;;;;;;;12.20;9.40;;;14.50;99.90;;;;;;5069820;28;20075;-83
2023/07/05 03:05:31;;;;;;;12.85;10.00;;;14.40;99.90;;;;;;5051811;28;20144;-82
2023/07/05 03:07:56;;;;;;;15.65;11.10;;;14.50;99.90;;;;;;5069557;28;20040;-82
2023/07/05 03:10:22;;;;;;;12.48;9.30;;;14.40;99.90;;;;;;5067514;28;20610;-82
2023/07/05 03:12:48;;;;;;;13.30;10.38;;;14.50;99.90;;;;;;5070202;28;20032;-82
2023/07/05 03:15:13;;;;;;;16.85;11.65;;;14.50;99.90;;;;;;5067845;28;20618;-82
2023/07/05 03:17:39;;;;;;;13.43;10.18;;;14.50;99.90;;;;;;5069495;28;20086;-82
2023/07/05 03:20:05;;;;;;;13.40;10.07;;;14.50;99.90;;;;;;5068938;28;20063;-82
2023/07/05 03:22:31;;;;;;;15.25;10.45;;;14.50;99.90;;;;;;5068388;28;20170;-83
2023/07/05 03:24:56;;;;;;;12.85;9.40;;;14.50;99.90;;;;;;5061311;28;20532;-82
2023/07/05 03:27:22;;;;;;;14.90;9.95;;;14.50;99.90;;;;;;5032138;28;20056;-82
2023/07/05 03:29:48;;;;;;;11.75;9.68;;;14.60;99.90;;;;;;5056685;28;20033;-82
2023/07/05 03:32:14;;;;;;;17.45;9.93;;;14.60;99.90;;;;;;5051503;28;20079;-82
2023/07/05 03:34:40;;;;;;;16.05;10.90;;;14.60;99.90;;;;;;5066967;28;20060;-82
2023/07/05 03:37:05;;;;;;;13.18;10.18;;;14.60;99.90;;;;;;5059575;28;20045;-82
2023/07/05 03:39:31;;;;;;;12.60;9.50;;;14.60;99.90;;;;;;5044363;28;20032;-82
2023/07/05 03:41:56;;;;;;;13.48;9.95;;;14.60;99.90;;;;;;5067154;28;20041;-82
2023/07/05 03:44:24;;;;;;;13.27;9.35;;;14.70;99.90;;;;;;5065653;28;20123;-81
2023/07/05 03:46:50;;;;;;;15.13;9.55;;;14.70;99.90;;;;;;5068700;28;20048;-81
2023/07/05 03:49:16;;;;;;;21.42;9.80;;;14.70;99.90;;;;;;5065907;28;20052;-83
2023/07/05 03:51:42;;;;;;;14.82;9.60;;;14.70;99.90;;;;;;5045039;28;20047;-81
2023/07/05 03:54:07;;;;;;;12.25;10.02;;;14.80;99.90;;;;;;5067980;28;20048;-83
2023/07/05 03:56:34;;;;;;;13.27;9.07;;;14.80;99.90;;;;;;5067997;28;20109;-80
2023/07/05 03:59:00;;;;;;;12.63;9.63;;;14.80;99.90;;;;;;5067553;28;20048;-81
2023/07/05 04:01:27;;;;;;;12.73;9.30;;;14.90;99.90;;;;;;5067384;28;20053;-81
2023/07/05 04:03:58;;;;;;;10.32;9.07;;;15.00;99.90;;;;;;5068048;28;20425;-81
2023/07/05 04:06:26;;;;;;;11.65;9.30;;;15.40;99.90;;;;;;5068334;28;20110;-82
2023/07/05 04:08:52;;;;;;;14.05;8.77;;;15.10;99.90;;;;;;5068021;28;20135;-81
2023/07/05 04:11:18;;;;;;;13.35;8.63;;;15.10;99.90;;;;;;5067202;28;20124;-81
2023/07/05 04:13:45;;;;;;;10.30;8.38;;;15.20;99.90;;;;;;5068556;28;20051;-81
2023/07/05 04:16:16;;;;;;;8.68;7.65;;;15.20;99.90;;;;;;5068012;28;20393;-81
2023/07/05 04:18:43;;;;;;;7.57;6.88;;;15.20;99.90;;;;;;5068108;28;20454;-80
2023/07/05 04:21:09;;;;;;;10.43;7.35;;;15.30;99.90;;;;;;5058505;28;20049;-80
2023/07/05 04:23:35;;;;;;;7.55;6.07;;;15.30;99.90;;;;;;5064156;28;20515;-80
2023/07/05 04:26:07;;;;;;;6.50;5.80;;;15.30;99.90;;;;;;5047275;28;20132;-80
2023/07/05 04:28:34;;;;;;;7.00;5.90;;;15.40;99.90;;;;;;5046277;28;20049;-80
2023/07/05 04:31:00;;;;;;;6.90;5.28;;;15.20;99.90;;;;;;5064296;28;20036;-81
2023/07/05 04:33:25;;;;;;;6.70;5.43;;;15.30;99.90;;;;;;5067254;28;20457;-82
2023/07/05 04:35:57;;;;;;;6.13;5.13;;;15.40;99.90;;;;;;5079336;28;20124;-81
2023/07/05 04:38:23;;;;;;;5.97;5.00;;;15.30;99.90;;;;;;5048445;28;20091;-80
2023/07/05 04:40:49;;;;;;;7.50;4.88;;;15.40;99.90;;;;;;5060905;28;20059;-82
2023/07/05 04:43:14;;;;;;;4.65;3.80;;;15.30;99.90;;;;;;5063146;28;20036;-81
2023/07/05 04:45:40;;;;;;;4.85;3.30;;;15.20;99.90;;;;;;5068027;28;20045;-81
2023/07/05 04:48:06;;;;;;;4.60;3.78;;;15.10;99.90;;;;;;5066030;28;20086;-81
2023/07/05 04:50:32;;;;;;;5.15;3.60;;;15.00;99.90;;;;;;5063181;28;20131;-81
2023/07/05 04:52:59;;;;;;;5.15;3.45;;;15.10;99.90;;;;;;5063927;28;20056;-81
2023/07/05 04:55:24;;;;;;;5.18;4.20;;;14.70;99.90;;;;;;5064883;28;20052;-81
2023/07/05 04:57:50;;;;;;;5.30;3.60;;;14.60;99.90;;;;;;5066385;28;20101;-80
2023/07/05 05:00:16;;;;;;;5.65;3.90;;;14.60;99.90;;;;;;5065025;28;20518;-81
2023/07/05 05:02:42;;;;;;;6.00;4.25;;;14.50;99.90;;;;;;5066082;28;20048;-81
2023/07/05 05:05:08;;;;;;;5.43;3.85;;;14.40;99.90;;;;;;5064567;28;20403;-81
2023/07/05 05:07:33;;;;;;;5.00;4.03;;;14.30;99.90;;;;;;5064322;28;20041;-83
2023/07/05 05:10:00;;;;;;;6.38;4.00;;;14.40;99.90;;;;;;5064368;28;20043;-83
2023/07/05 05:12:26;;;;;;;5.82;4.30;;;14.30;99.90;;;;;;5064520;28;20044;-82
2023/07/05 05:14:52;;;;;;;4.40;4.00;;;14.30;99.90;;;;;;5065855;28;20033;-81
2023/07/05 05:17:17;;;;;;;4.82;4.22;;;14.30;99.90;;;;;;5065676;28;20044;-83
2023/07/05 05:19:43;;;;;;;5.05;4.47;;;14.30;99.90;;;;;;5064027;28;20052;-81
2023/07/05 05:22:10;;;;;;;4.57;4.10;;;14.30;99.90;;;;;;5065091;28;20515;-81
2023/07/05 05:24:36;;;;;;;5.35;4.20;;;14.40;99.90;;;;;;5049386;28;20048;-81
2023/07/05 05:27:02;;;;;;;6.72;4.43;;;14.50;99.90;;;;;;5066111;28;20036;-81
2023/07/05 05:29:29;;;;;;;6.43;4.72;;;14.50;99.90;;;;;;5064610;28;20064;-82
2023/07/05 05:31:56;;;;;;;5.68;4.60;;;14.80;99.90;;;;;;5050081;28;20055;-81
2023/07/05 05:34:24;;;;;;;6.75;4.82;;;14.80;99.90;;;;;;5067218;28;20055;-83
2023/07/05 05:36:49;;;;;;;6.35;3.85;;;15.40;99.90;;;;;;5066957;28;20049;-82
2023/07/05 05:39:15;;;;;;;4.65;4.03;;;15.60;99.90;;;;;;5064370;28;20052;-82
2023/07/05 05:41:41;;;;;;;5.38;3.92;;;15.50;99.90;;;;;;5066202;28;20045;-82
2023/07/05 05:44:07;;;;;;;4.88;4.10;;;15.70;99.90;;;;;;5067820;28;20033;-83
2023/07/05 05:46:33;;;;;;;4.60;4.20;;;15.20;99.90;;;;;;5048912;28;20037;-82
2023/07/05 05:48:59;;;;;;;5.22;4.00;;;15.10;99.90;;;;;;5065897;28;20591;-83
2023/07/05 05:51:25;;;;;;;5.82;4.30;;;15.10;99.90;;;;;;5066945;28;20055;-83
2023/07/05 05:53:51;;;;;;;4.45;3.65;;;15.00;99.90;;;;;;5049742;28;20041;-82
2023/07/05 05:56:16;;;;;;;7.93;3.42;;;14.90;99.90;;;;;;5048546;28;20029;-83
2023/07/05 05:58:42;;;;;;;6.72;3.80;;;14.90;99.90;;;;;;5066743;28;20051;-82
2023/07/05 06:01:07;;;;;;;5.22;3.67;;;14.80;99.90;;;;;;5065220;28;20506;-84
2023/07/05 06:03:33;;;;;;;5.97;3.70;;;14.80;99.90;;;;;;5065957;28;20052;-83
2023/07/05 06:05:59;;;;;;;4.70;3.50;;;14.90;99.90;;;;;;5066134;28;20043;-83
2023/07/05 06:08:27;;;;;;;4.95;3.47;;;15.00;99.90;;;;;;5049280;28;20048;-82
2023/07/05 06:10:58;;;;;;;5.88;4.15;;;15.00;99.90;;;;;;5065845;28;20048;-83
2023/07/05 06:13:26;;;;;;;5.13;3.55;;;15.70;99.90;;;;;;5065005;28;20173;-84
2023/07/05 06:15:56;;;;;;;5.25;3.22;;;15.90;99.90;;;;;;5066058;28;20611;-83
2023/07/05 06:18:21;;;;;;;4.65;3.60;;;16.40;99.90;;;;;;5065773;28;20454;-83
2023/07/05 06:20:47;;;;;;;6.00;3.30;;;17.70;99.90;;;;;;5064688;28;20048;-83
2023/07/05 06:23:17;;;;;;;4.15;3.15;;;18.00;99.90;;;;;;5066237;28;20071;-83
2023/07/05 06:25:50;;;;;;;4.82;3.58;;;18.00;99.90;;;;;;5063636;28;20114;-82
2023/07/05 06:28:17;;;;;;;5.50;3.53;;;18.20;99.90;;;;;;5064501;28;20127;-82
2023/07/05 06:30:44;;;;;;;6.78;3.63;;;18.70;99.90;;;;;;5048963;28;20037;-82
2023/07/05 06:33:10;;;;;;;3.75;3.30;;;18.60;99.90;;;;;;5066081;28;20127;-83
2023/07/05 06:35:36;;;;;;;5.97;3.33;;;18.50;99.90;;;;;;5064372;28;20420;-83
2023/07/05 06:38:02;;;;;;;5.13;3.13;;;18.70;99.90;;;;;;5049335;28;20037;-84
2023/07/05 06:40:28;;;;;;;5.32;3.25;;;19.20;99.90;;;;;;5065502;28;20123;-83
2023/07/05 06:42:53;;;;;;;6.47;3.38;;;18.90;99.90;;;;;;5065413;28;20044;-81
2023/07/05 06:45:19;;;;;;;5.18;3.20;;;18.60;99.90;;;;;;5065518;28;20484;-83
2023/07/05 06:47:45;;;;;;;4.85;3.25;;;18.40;99.90;;;;;;5065471;28;20045;-82
2023/07/05 06:50:12;;;;;;;4.65;3.45;;;18.10;99.90;;;;;;5046475;28;20052;-82
2023/07/05 06:52:39;;;;;;;6.25;3.08;;;17.80;99.90;;;;;;5059199;28;20053;-82
2023/07/05 06:55:06;;;;;;;4.22;2.88;;;17.70;99.90;;;;;;5068692;28;20075;-86
2023/07/05 06:57:34;;;;;;;4.85;2.78;;;17.60;99.90;;;;;;5069969;28;20145;-88
2023/07/05 06:59:59;;;;;;;4.70;3.25;;;17.40;99.90;;;;;;5069993;28;20056;-85
2023/07/05 07:02:25;;;;;;;4.65;3.10;;;17.10;99.90;;;;;;5068812;28;20217;-83
2023/07/05 07:04:51;;;;;;;4.00;2.83;;;16.70;99.90;;;;;;5051798;28;20047;-86
2023/07/05 07:07:16;;;;;;;5.25;2.95;;;16.60;99.90;;;;;;5067313;28;20524;-79
2023/07/05 07:09:42;;;;;;;4.88;2.92;;;16.70;99.90;;;;;;5065950;28;20036;-81
2023/07/05 07:12:08;;;;;;;6.50;3.25;;;16.90;99.90;;;;;;5070210;28;20127;-82
2023/07/05 07:14:34;;;;;;;3.95;2.92;;;17.00;99.90;;;;;;5070054;28;20036;-82
2023/07/05 07:16:59;;;;;;;6.38;3.13;;;17.10;99.90;;;;;;5069881;28;20412;-81
2023/07/05 07:19:25;;;;;;;3.78;3.00;;;17.00;99.90;;;;;;5069829;28;20052;-82
2023/07/05 07:21:51;;;;;;;5.50;3.28;;;17.00;99.90;;;;;;5070421;28;20037;-81
2023/07/05 07:24:16;;;;;;;3.28;2.90;;;16.80;99.90;;;;;;5069811;28;20044;-80
2023/07/05 07:26:42;;;;;;;4.28;3.28;;;16.30;99.90;;;;;;5070332;28;20048;-81
2023/07/05 07:29:10;;;;;;;4.70;3.50;;;15.90;99.90;;;;;;5068514;28;20071;-82
2023/07/05 07:31:36;;;;;;;6.47;3.22;;;15.60;99.90;;;;;;5070033;28;20044;-82
2023/07/05 07:34:02;;;;;;;5.53;3.38;;;15.30;99.90;;;;;;5051117;28;20045;-81
2023/07/05 07:36:31;;;;;;;5.30;3.53;;;15.10;99.90;;;;;;5069513;28;20041;-82
2023/07/05 07:38:57;;;;;;;6.22;3.45;;;14.80;99.90;;;;;;5069066;28;20419;-83
2023/07/05 07:41:28;;;;;;;5.07;3.10;;;14.60;99.90;;;;;;5069388;28;20036;-82
2023/07/05 07:44:02;;;;;;;6.28;3.30;;;14.40;99.90;;;;;;5069099;28;20467;-84
2023/07/05 07:46:30;;;;;;;4.53;2.60;;;14.20;99.90;;;;;;5067474;28;20111;-83
2023/07/05 07:48:57;;;;;;;2.00;1.40;;;14.00;99.90;;;;;;5067118;28;20048;-81
2023/07/05 07:51:29;;;;;;;3.83;1.40;;;13.70;99.90;;;;;;5069335;28;20048;-82
2023/07/05 07:53:55;;;;;;;1.90;1.40;;;13.50;99.90;;;;;;5069659;28;20048;-81
2023/07/05 07:56:23;;;;;;;1.23;1.02;;;13.30;99.90;;;;;;5069511;28;20041;-82
2023/07/05 07:58:51;;;;;;;3.65;1.20;;;13.20;99.90;;;;;;5068753;28;20052;-81
2023/07/05 08:01:29;;;;;;;1.17;1.05;;;13.10;99.90;;;;;;5067920;28;20048;-82
2023/07/05 08:03:57;;;;;;;1.65;1.30;;;13.00;99.90;;;;;;5067953;28;20048;-81
2023/07/05 08:06:34;;;;;;;2.20;1.17;;;13.00;99.90;;;;;;5068030;28;20503;-81
2023/07/05 08:09:00;;;;;;;1.30;1.00;;;13.00;99.90;;;;;;5066360;28;20404;-81
2023/07/05 08:11:26;;;;;;;2.55;1.20;;;13.00;99.90;;;;;;5068778;28;20044;-82
2023/07/05 08:13:51;;;;;;;1.92;1.02;;;13.00;99.90;;;;;;5068784;28;20052;-81
2023/07/05 08:16:17;;;;;;;0.60;0.60;;;13.00;99.90;;;;;;5070522;28;20059;-81
2023/07/05 08:18:46;;;;;;;2.85;0.70;;;13.00;99.90;;;;;;5068265;28;20488;-81
2023/07/05 08:21:14;;;;;;;0.98;0.73;;;13.00;99.90;;;;;;5052066;28;20400;-82
2023/07/05 08:23:41;;;;;;;1.67;0.80;;;12.90;99.90;;;;;;5068255;28;20059;-81
2023/07/05 08:26:06;;;;;;;1.83;0.98;;;12.80;99.90;;;;;;5069795;28;20049;-81
2023/07/05 08:28:32;;;;;;;2.05;0.80;;;12.70;99.90;;;;;;5067804;28;20458;-80
2023/07/05 08:31:00;;;;;;;1.30;0.93;;;12.70;99.90;;;;;;5065205;28;20439;-81
2023/07/05 08:33:27;;;;;;;3.58;0.77;;;12.70;99.90;;;;;;5048300;28;20091;-80
2023/07/05 08:36:14;;;;;;;1.02;0.93;;;12.60;99.90;;;;;;5048720;28;20151;-81
2023/07/05 08:38:51;;;;;;;1.63;0.98;;;12.60;99.90;;;;;;5031047;28;20413;-81
2023/07/05 08:41:44;;;;;;;4.72;1.10;;;12.60;99.90;;;;;;5047463;28;20557;-80
2023/07/05 08:44:15;;;;;;;1.73;0.77;;;12.50;99.90;;;;;;5055162;28;20098;-82
2023/07/05 08:46:41;;;;;;;1.30;0.57;;;12.50;99.90;;;;;;5067232;28;20041;-81
2023/07/05 08:49:15;;;;;;;1.42;0.77;;;12.40;99.90;;;;;;5067369;28;20060;-82
2023/07/05 08:51:43;;;;;;;1.88;1.05;;;12.40;99.90;;;;;;5067320;28;20051;-83
2023/07/05 08:54:13;;;;;;;2.85;1.35;;;12.40;99.90;;;;;;5067296;28;20163;-83
2023/07/05 08:56:43;;;;;;;3.63;1.40;;;12.30;99.90;;;;;;5050761;28;20049;-83
2023/07/05 08:59:51;;;;;;;2.92;1.40;;;12.30;99.90;;;;;;5067404;28;20059;-83
2023/07/05 09:02:20;;;;;;;2.83;1.55;;;12.30;99.90;;;;;;5070579;28;20145;-82
2023/07/05 09:04:47;;;;;;;2.58;1.13;;;12.30;99.90;;;;;;5050058;28;20384;-82
2023/07/05 09:07:48;;;;;;;2.90;1.33;;;12.30;99.90;;;;;;5066939;28;20049;-82
2023/07/05 09:10:39;;;;;;;2.95;1.40;;;12.30;99.90;;;;;;5066553;28;20056;-82
2023/07/05 09:13:20;;;;;;;1.58;1.30;;;12.20;99.90;;;;;;5068979;28;20042;-81
2023/07/05 09:15:53;;;;;;;3.40;1.38;;;12.30;99.90;;;;;;5067968;28;20475;-81
2023/07/05 09:18:54;;;;;;;3.15;1.08;;;12.30;99.90;;;;;;5069461;28;20468;-82
2023/07/05 09:21:19;;;;;;;2.67;1.23;;;12.30;99.90;;;;;;5066916;28;20040;-82
2023/07/05 09:23:50;;;;;;;4.72;1.40;;;12.40;99.90;;;;;;5067273;28;20424;-82
2023/07/05 09:26:46;;;;;;;5.63;1.80;;;12.40;99.90;;;;;;5067260;28;20044;-82
2023/07/05 09:29:29;;;;;;;3.13;1.30;;;12.40;99.90;;;;;;5068328;28;20060;-81
2023/07/05 09:31:55;;;;;;;3.90;1.60;;;12.40;99.90;;;;;;5048469;28;20041;-81
2023/07/05 09:34:38;;;;;;;5.25;1.95;;;12.20;99.90;;;;;;5047215;28;20528;-81
2023/07/05 09:37:13;;;;;;;5.43;1.70;;;12.20;99.90;;;;;;5047948;28;20045;-81
2023/07/05 09:39:56;;;;;;;4.70;1.70;;;12.20;99.90;;;;;;5048162;28;20179;-81
2023/07/05 09:42:34;;;;;;;6.80;2.00;;;12.20;99.90;;;;;;5068450;28;20789;-82
2023/07/05 09:44:59;;;;;;;8.48;1.95;;;12.20;99.90;;;;;;5084080;28;20097;-81
2023/07/05 09:47:25;;;;;;;6.40;2.22;;;12.20;99.90;;;;;;5067247;28;20036;-81
2023/07/05 09:49:51;;;;;;;5.05;1.90;;;12.20;99.90;;;;;;5066496;28;20044;-82
2023/07/05 09:52:22;;;;;;;7.18;2.30;;;12.20;99.90;;;;;;5062315;28;20056;-82
2023/07/05 09:54:50;;;;;;;6.50;2.65;;;12.50;99.90;;;;;;5050055;28;20044;-83
2023/07/05 09:57:25;;;;;;;5.28;2.20;;;12.20;99.90;;;;;;5064909;28;20064;-82
2023/07/05 09:59:52;;;;;;;4.32;1.60;;;12.30;99.90;;;;;;5060320;28;20079;-84
2023/07/05 10:02:25;;;;;;;5.75;1.77;;;12.40;99.90;;;;;;5056812;28;20048;-83
2023/07/05 10:04:54;;;;;;;5.38;1.55;;;12.40;99.90;;;;;;5066455;28;20037;-83
2023/07/05 10:07:24;;;;;;;6.82;2.13;;;12.40;99.90;;;;;;5064681;28;20044;-89
2023/07/05 10:10:01;;;;;;;6.18;2.38;;;12.50;99.90;;;;;;5066880;28;20049;-83
2023/07/05 10:12:33;;;;;;;4.03;1.70;;;12.40;99.90;;;;;;5066631;28;20061;-86
2023/07/05 10:14:59;;;;;;;;;;;12.50;99.90;;;;;;5045883;28;20044;-82
2023/07/05 10:17:42;;;;;;;2.97;1.35;;;12.60;99.90;;;;;;5058629;28;19921;-86
2023/07/05 10:20:16;;;;;;;;;;;12.50;99.90;;;;;;5068305;28;20048;-84
2023/07/05 10:22:42;;;;;;;5.32;1.55;;;12.60;99.90;;;;;;5065406;28;19928;-83
2023/07/05 10:25:18;;;;;;;5.40;1.63;;;12.60;99.90;;;;;;5061394;28;20465;-84
2023/07/05 10:27:50;;;;;;;4.10;1.60;;;12.70;99.90;;;;;;5070335;28;20488;-88
2023/07/05 10:30:19;;;;;;;7.47;1.85;;;12.60;99.90;;;;;;5067907;28;20056;-85
2023/07/05 10:33:20;;;;;;;4.30;1.45;;;12.70;99.90;;;;;;5064299;28;20497;-89
2023/07/05 10:36:04;;;;;;;2.90;1.38;;;12.70;99.90;;;;;;5069849;28;20044;-88
2023/07/05 10:38:33;;;;;;;4.43;1.40;;;12.80;99.90;;;;;;5067816;28;20135;-83
2023/07/05 10:41:19;;;;;;;5.03;1.80;;;12.80;99.90;;;;;;5070942;28;20088;-85
2023/07/05 10:44:12;;;;;;;3.00;1.35;;;12.80;99.90;;;;;;5071458;28;20040;-86
2023/07/05 10:46:38;;;;;;;4.45;1.45;;;12.80;99.90;;;;;;5067531;28;20138;-86
2023/07/05 10:49:13;;;;;;;5.47;1.83;;;12.90;99.90;;;;;;5069843;28;20106;-87
2023/07/05 10:51:42;;;;;;;7.00;1.95;;;12.90;99.90;;;;;;5069125;28;20106;-85
2023/07/05 10:54:45;;;;;;;6.53;1.90;;;13.00;99.90;;;;;;5069699;28;20048;-87
2023/07/05 10:57:33;;;;;;;6.78;2.38;;;13.10;99.90;;;;;;5067458;28;20153;-87
2023/07/05 11:00:03;;;;;;;4.15;2.03;;;13.10;99.90;;;;;;5069256;28;20053;-86
2023/07/05 11:02:36;;;;;;;7.85;2.92;;;13.30;99.90;;;;;;5069200;28;20056;-87
2023/07/05 11:05:04;;;;;;;4.07;1.80;;;13.20;99.90;;;;;;5069249;28;20434;-87
2023/07/05 11:07:32;;;;;;;5.57;1.80;;;13.40;99.90;;;;;;5051860;28;20511;-89
2023/07/05 11:09:58;;;;;;;5.70;2.15;;;13.40;99.90;;;;;;5064190;28;20492;-85
2023/07/05 11:12:27;;;;;;;5.55;2.17;;;13.40;99.90;;;;;;5060971;28;20041;-86
2023/07/05 11:14:55;;;;;;;4.30;1.90;;;13.40;99.90;;;;;;5046731;28;20412;-83
2023/07/05 11:17:31;;;;;;;6.50;2.05;;;13.30;99.90;;;;;;5054672;28;20045;-83
2023/07/05 11:19:56;;;;;;;5.82;2.05;;;13.30;99.90;;;;;;5062483;28;20538;-85
2023/07/05 11:22:39;;;;;;;4.68;1.70;;;13.20;99.90;;;;;;5068443;28;20040;-85
2023/07/05 11:25:12;;;;;;;3.55;1.77;;;13.10;99.90;;;;;;5068876;28;20447;-85
2023/07/05 11:27:46;;;;;;;2.35;1.42;;;13.00;99.90;;;;;;5068793;28;20048;-82
2023/07/05 11:30:51;;;;;;;6.15;1.50;;;12.90;99.90;;;;;;5059261;28;20060;-84
2023/07/05 11:33:20;;;;;;;4.03;1.48;;;12.80;99.90;;;;;;5010167;28;20119;-85
2023/07/05 11:35:52;;;;;;;3.13;1.40;;;12.80;99.90;;;;;;5045412;28;20150;-84
2023/07/05 11:38:36;;;;;;;3.90;1.48;;;12.60;99.90;;;;;;5030538;28;20060;-84
2023/07/05 11:41:25;;;;;;;3.65;1.35;;;12.60;99.90;;;;;;5069574;28;20515;-84
2023/07/05 11:44:29;;;;;;;3.53;1.52;;;12.50;99.90;;;;;;5051314;28;20051;-85
2023/07/05 11:46:55;;;;;;;4.25;1.70;;;12.40;99.90;;;;;;5069166;28;20508;-85
2023/07/05 11:49:21;;;;;;;4.75;1.70;;;12.40;99.90;;;;;;5067762;28;20181;-84
2023/07/05 11:52:11;;;;;;;4.93;1.75;;;12.30;99.90;;;;;;5070135;28;20051;-85
2023/07/05 11:54:37;;;;;;;4.18;1.48;;;12.30;99.90;;;;;;5068224;28;20060;-89
2023/07/05 11:57:06;;;;;;;5.90;1.63;;;12.30;99.90;;;;;;5068761;28;20444;-84
2023/07/05 11:59:36;;;;;;;6.13;2.00;;;12.30;99.90;;;;;;5067535;28;20055;-87
2023/07/05 12:02:24;;;;;;;4.68;1.55;;;12.30;99.90;;;;;;5068615;28;20558;-83
2023/07/05 12:04:53;;;;;;;2.95;1.55;;;12.30;99.90;;;;;;5068387;28;20509;-82
2023/07/05 12:07:21;;;;;;;3.30;1.90;;;12.30;99.90;;;;;;5067965;28;20052;-83
2023/07/05 12:09:47;;;;;;;6.35;1.90;;;12.40;99.90;;;;;;5081751;28;20091;-83
2023/07/05 12:12:13;;;;;;;7.97;2.42;;;12.60;99.90;;;;;;5067257;28;20048;-84
2023/07/05 12:14:43;;;;;;;8.25;2.60;;;12.70;99.90;;;;;;5067391;28;20508;-84
2023/07/05 12:17:26;;;;;;;4.63;1.80;;;12.70;99.90;;;;;;5066612;28;20158;-83
2023/07/05 12:19:52;;;;;;;5.13;2.00;;;12.80;99.90;;;;;;5066454;28;20419;-82
2023/07/05 12:22:25;;;;;;;8.25;2.42;;;12.90;99.90;;;;;;5067358;28;20041;-82
2023/07/05 12:24:52;;;;;;;7.05;2.00;;;13.00;99.90;;;;;;5051050;28;20825;-84
2023/07/05 12:27:27;;;;;;;6.38;2.40;;;13.10;99.90;;;;;;5066539;28;20040;-83
2023/07/05 12:29:57;;;;;;;4.72;1.92;;;13.10;99.90;;;;;;5067830;28;20055;-83
2023/07/05 12:32:28;;;;;;;4.95;1.90;;;13.10;99.90;;;;;;5049171;28;20035;-83
2023/07/05 12:35:12;;;;;;;6.93;2.05;;;13.10;99.90;;;;;;5066746;28;20571;-83
2023/07/05 12:37:38;;;;;;;5.38;1.65;;;13.00;99.90;;;;;;5066594;28;20048;-82
2023/07/05 12:40:19;;;;;;;4.78;1.80;;;13.00;99.90;;;;;;5066719;28;20055;-82
2023/07/05 12:42:53;;;;;;;8.02;2.30;;;12.90;99.90;;;;;;5050001;28;20041;-83
2023/07/05 12:45:32;;;;;;;8.77;2.58;;;12.90;99.90;;;;;;5066828;28;20535;-81
2023/07/05 12:48:16;;;;;;;8.30;2.60;;;13.00;99.90;;;;;;5065836;28;20048;-83
2023/07/05 12:50:42;;;;;;;5.68;2.40;;;13.10;99.90;;;;;;5066002;28;20137;-84
2023/07/05 12:53:26;;;;;;;8.95;2.30;;;13.10;99.90;;;;;;5066122;28;20053;-81
2023/07/05 12:56:04;;;;;;;5.85;2.50;;;13.10;99.90;;;;;;5067522;28;20528;-81
2023/07/05 12:58:30;;;;;;;8.52;2.20;;;13.00;99.90;;;;;;5066528;28;20036;-81
2023/07/05 13:00:57;;;;;;;7.05;2.65;;;13.00;99.90;;;;;;5068068;28;20048;-82
2023/07/05 13:03:26;;;;;;;7.80;2.80;;;13.10;99.90;;;;;;5050078;28;20062;-84